createdAt,value
2023-05-10T00:01:59.966Z,5.22
2023-05-10T00:04:29.183Z,6.78
2023-05-10T00:06:58.098Z,6.40
2023-05-10T00:09:33.626Z,4.60
2023-05-10T00:12:10.555Z,4.78
2023-05-10T00:14:39.660Z,6.03
2023-05-10T00:17:13.350Z,4.65
2023-05-10T00:19:48.352Z,4.80
2023-05-10T00:22:20.300Z,6.28
2023-05-10T00:24:49.337Z,5.53
2023-05-10T00:27:29.584Z,4.88
2023-05-10T00:30:01.780Z,4.45
2023-05-10T00:32:32.304Z,4.20
2023-05-10T00:35:08.788Z,4.82
2023-05-10T00:37:40.029Z,3.88
2023-05-10T00:40:09.403Z,5.53
2023-05-10T00:42:43.988Z,9.38
2023-05-10T00:45:16.218Z,5.78
2023-05-10T00:47:48.163Z,4.00
2023-05-10T00:50:17.568Z,10.20
2023-05-10T00:52:56.409Z,4.97
2023-05-10T00:55:30.146Z,4.90
2023-05-10T00:57:59.551Z,4.43
2023-05-10T01:00:35.863Z,4.78
2023-05-10T01:03:09.845Z,5.22
2023-05-10T01:05:44.387Z,4.15
2023-05-10T01:08:18.390Z,3.85
2023-05-10T01:10:52.945Z,4.82
2023-05-10T01:13:48.974Z,3.90
2023-05-10T01:16:23.179Z,6.20
2023-05-10T01:18:56.959Z,4.95
2023-05-10T01:22:10.635Z,5.45
2023-05-10T01:24:54.235Z,3.92
2023-05-10T01:27:39.787Z,4.10
2023-05-10T01:33:38.326Z,4.85
2023-05-10T01:36:18.066Z,6.45
2023-05-10T01:38:54.942Z,4.93
2023-05-10T01:41:59.008Z,4.93
2023-05-10T01:44:40.988Z,4.85
2023-05-10T01:47:17.218Z,6.88
2023-05-10T01:49:57.810Z,9.18
2023-05-10T01:52:34.711Z,5.10
2023-05-10T01:55:15.014Z,6.05
2023-05-10T01:57:48.242Z,6.82
2023-05-10T02:00:21.836Z,5.95
2023-05-10T02:02:58.787Z,9.75
2023-05-10T02:05:37.786Z,7.40
2023-05-10T02:08:10.274Z,6.20
2023-05-10T02:10:47.807Z,6.38
2023-05-10T02:13:21.337Z,6.78
2023-05-10T02:15:54.798Z,6.55
2023-05-10T02:18:29.247Z,5.85
2023-05-10T02:21:07.535Z,4.28
2023-05-10T02:23:37.784Z,5.93
2023-05-10T02:26:10.530Z,6.78
2023-05-10T02:28:51.275Z,7.72
2023-05-10T02:31:21.542Z,5.35
2023-05-10T02:33:54.828Z,5.28
2023-05-10T02:36:34.993Z,6.95
2023-05-10T02:39:11.957Z,5.57
2023-05-10T02:41:44.385Z,6.82
2023-05-10T02:44:20.378Z,5.97
2023-05-10T02:46:52.560Z,6.35
2023-05-10T02:49:23.709Z,6.18
2023-05-10T02:51:58.904Z,4.60
2023-05-10T02:54:40.359Z,5.63
2023-05-10T02:57:18.323Z,5.60
2023-05-10T02:59:54.990Z,5.05
2023-05-10T03:02:26.619Z,4.55
2023-05-10T03:04:55.822Z,6.35
2023-05-10T03:07:33.052Z,5.60
2023-05-10T03:10:04.556Z,8.30
2023-05-10T03:13:04.448Z,6.63
2023-05-10T03:15:44.696Z,6.93
2023-05-10T03:18:49.850Z,4.88
2023-05-10T03:21:24.477Z,5.80
2023-05-10T03:24:03.186Z,6.05
2023-05-10T03:26:42.160Z,6.88
2023-05-10T03:29:25.691Z,6.38
2023-05-10T03:31:55.526Z,6.28
2023-05-10T03:34:33.078Z,6.72
2023-05-10T03:37:03.088Z,7.13
2023-05-10T03:39:42.925Z,6.95
2023-05-10T03:42:16.124Z,6.15
2023-05-10T03:44:52.359Z,5.93
2023-05-10T03:47:29.502Z,6.40
2023-05-10T03:50:02.940Z,7.07
2023-05-10T03:52:35.944Z,6.88
2023-05-10T03:55:08.367Z,5.55
2023-05-10T03:57:41.817Z,6.53
2023-05-10T04:00:20.613Z,9.60
2023-05-10T04:02:59.921Z,6.85
2023-05-10T04:05:29.472Z,6.75
2023-05-10T04:07:59.368Z,6.65
2023-05-10T04:10:33.144Z,7.68
2023-05-10T04:13:13.897Z,7.90
2023-05-10T04:15:49.154Z,5.97
2023-05-10T04:18:22.563Z,7.72
2023-05-10T04:20:58.834Z,7.28
2023-05-10T04:23:29.335Z,6.97
2023-05-10T04:26:02.920Z,6.43
2023-05-10T04:28:35.095Z,7.28
2023-05-10T04:31:11.013Z,8.23
2023-05-10T04:33:42.084Z,8.02
2023-05-10T04:36:16.885Z,7.45
2023-05-10T04:38:47.085Z,7.65
2023-05-10T04:41:18.238Z,6.50
2023-05-10T04:43:47.543Z,6.78
2023-05-10T04:46:24.276Z,7.28
2023-05-10T04:48:53.040Z,8.25
2023-05-10T04:51:29.511Z,15.10
2023-05-10T04:54:06.487Z,7.53
2023-05-10T04:56:46.337Z,7.45
2023-05-10T04:59:17.854Z,7.15
2023-05-10T05:01:46.973Z,7.70
2023-05-10T05:04:18.310Z,9.40
2023-05-10T05:06:53.995Z,7.20
2023-05-10T05:09:31.108Z,13.82
2023-05-10T05:12:05.663Z,6.82
2023-05-10T05:14:34.733Z,6.15
2023-05-10T05:17:08.471Z,6.97
2023-05-10T05:19:39.751Z,8.55
2023-05-10T05:22:15.721Z,9.52
2023-05-10T05:24:47.293Z,9.93
2023-05-10T05:27:19.498Z,9.75
2023-05-10T05:29:56.772Z,9.57
2023-05-10T05:32:32.605Z,7.57
2023-05-10T05:35:05.544Z,5.75
2023-05-10T05:37:37.587Z,9.40
2023-05-10T05:40:14.051Z,7.63
2023-05-10T05:42:48.279Z,7.30
2023-05-10T05:45:20.372Z,9.60
2023-05-10T05:47:52.775Z,6.43
2023-05-10T05:50:24.512Z,7.55
2023-05-10T05:52:59.018Z,7.30
2023-05-10T05:55:35.783Z,8.20
2023-05-10T05:58:10.122Z,6.28
2023-05-10T06:00:44.549Z,7.75
2023-05-10T06:03:21.995Z,7.45
2023-05-10T06:05:53.955Z,10.65
2023-05-10T06:08:29.109Z,7.95
2023-05-10T06:11:03.654Z,5.70
2023-05-10T06:13:36.843Z,6.10
2023-05-10T06:16:15.351Z,10.73
2023-05-10T06:18:48.164Z,8.98
2023-05-10T06:21:22.668Z,9.20
2023-05-10T06:23:56.889Z,5.85
2023-05-10T06:26:31.870Z,7.35
2023-05-10T06:29:04.014Z,5.90
2023-05-10T06:31:36.471Z,9.25
2023-05-10T06:36:48.466Z,7.55
2023-05-10T06:39:20.284Z,6.82
2023-05-10T06:41:56.890Z,5.85
2023-05-10T06:44:31.158Z,7.32
2023-05-10T06:47:07.788Z,7.85
2023-05-10T06:49:47.854Z,6.32
2023-05-10T06:52:19.747Z,6.43
2023-05-10T06:54:57.342Z,8.45
2023-05-10T06:57:31.702Z,6.25
2023-05-10T07:00:08.412Z,7.20
2023-05-10T07:02:38.395Z,6.93
2023-05-10T07:05:18.245Z,6.70
2023-05-10T07:07:53.182Z,8.10
2023-05-10T07:10:28.156Z,7.30
2023-05-10T07:13:02.914Z,6.82
2023-05-10T07:15:32.604Z,6.95
2023-05-10T07:18:03.840Z,6.57
2023-05-10T07:20:37.794Z,7.20
2023-05-10T07:23:10.892Z,6.40
2023-05-10T07:25:43.888Z,7.20
2023-05-10T07:28:18.422Z,6.35
2023-05-10T07:30:50.732Z,5.85
2023-05-10T07:33:24.285Z,6.35
2023-05-10T07:36:02.231Z,10.07
2023-05-10T07:38:33.899Z,7.15
2023-05-10T07:41:09.264Z,8.93
2023-05-10T07:43:44.330Z,6.07
2023-05-10T07:46:18.250Z,6.07
2023-05-10T07:48:48.285Z,4.97
2023-05-10T07:51:18.503Z,7.88
2023-05-10T07:53:48.010Z,5.63
2023-05-10T07:56:33.835Z,6.93
2023-05-10T07:59:11.349Z,5.50
2023-05-10T08:01:45.746Z,5.97
2023-05-10T08:04:20.774Z,6.45
2023-05-10T08:06:56.275Z,6.47
2023-05-10T08:09:30.335Z,5.40
2023-05-10T08:12:04.954Z,5.97
2023-05-10T08:14:39.062Z,5.03
2023-05-10T08:17:11.699Z,10.68
2023-05-10T08:19:43.758Z,7.15
2023-05-10T08:22:15.322Z,6.65
2023-05-10T08:24:54.738Z,6.63
2023-05-10T08:27:25.989Z,6.20
2023-05-10T08:29:58.397Z,5.50
2023-05-10T08:32:32.374Z,7.05
2023-05-10T08:35:07.207Z,4.97
2023-05-10T08:37:39.046Z,4.43
2023-05-10T08:40:17.145Z,5.93
2023-05-10T08:43:10.292Z,5.72
2023-05-10T08:45:44.294Z,7.22
2023-05-10T08:48:15.230Z,7.88
2023-05-10T08:50:50.531Z,6.78
2023-05-10T08:53:28.169Z,8.90
2023-05-10T08:56:00.593Z,5.38
2023-05-10T08:58:32.650Z,4.97
2023-05-10T09:01:08.634Z,4.68
2023-05-10T09:03:47.887Z,6.22
2023-05-10T09:06:23.954Z,5.22
2023-05-10T09:08:55.199Z,7.63
2023-05-10T09:11:24.606Z,5.90
2023-05-10T09:13:57.728Z,5.15
2023-05-10T09:16:27.173Z,6.65
2023-05-10T09:19:00.878Z,4.95
2023-05-10T09:21:31.262Z,4.28
2023-05-10T09:24:08.858Z,6.07
2023-05-10T09:26:52.765Z,6.40
2023-05-10T09:29:27.002Z,6.25
2023-05-10T09:31:58.893Z,8.48
2023-05-10T09:34:32.883Z,4.97
2023-05-10T09:37:06.907Z,6.50
2023-05-10T09:39:42.889Z,5.68
2023-05-10T09:42:20.421Z,7.10
2023-05-10T09:44:54.133Z,11.20
2023-05-10T09:47:26.930Z,6.22
2023-05-10T09:50:04.317Z,7.05
2023-05-10T09:53:06.909Z,7.28
2023-05-10T09:55:51.416Z,8.70
2023-05-10T09:58:21.026Z,6.90
2023-05-10T10:00:56.142Z,7.88
2023-05-10T10:03:31.145Z,5.05
2023-05-10T10:06:02.880Z,7.93
2023-05-10T10:08:37.725Z,5.65
2023-05-10T10:11:10.139Z,7.47
2023-05-10T10:13:44.974Z,6.25
2023-05-10T10:16:15.152Z,5.53
2023-05-10T10:18:50.056Z,5.32
2023-05-10T10:21:25.985Z,6.10
2023-05-10T10:24:01.327Z,6.45
2023-05-10T10:26:39.636Z,5.82
2023-05-10T10:32:49.726Z,5.68
2023-05-10T10:35:25.931Z,4.75
2023-05-10T10:38:02.085Z,5.70
2023-05-10T10:40:35.584Z,4.57
2023-05-10T10:43:28.504Z,6.22
2023-05-10T10:46:21.009Z,4.18
2023-05-10T10:49:13.129Z,7.38
2023-05-10T10:52:16.198Z,4.93
2023-05-10T10:55:16.694Z,7.05
2023-05-10T10:58:06.054Z,5.53
2023-05-10T11:00:42.327Z,5.13
2023-05-10T11:03:16.366Z,5.78
2023-05-10T11:06:02.606Z,3.75
2023-05-10T11:08:36.880Z,5.78
2023-05-10T11:11:19.311Z,4.70
2023-05-10T11:13:52.231Z,4.22
2023-05-10T11:16:28.577Z,6.20
2023-05-10T11:19:01.577Z,6.85
2023-05-10T11:21:34.568Z,7.88
2023-05-10T11:24:18.255Z,4.65
2023-05-10T11:26:52.332Z,4.55
2023-05-10T11:29:24.855Z,5.35
2023-05-10T11:32:02.357Z,5.25
2023-05-10T11:34:37.287Z,7.78
2023-05-10T11:37:12.397Z,4.35
2023-05-10T11:39:51.665Z,4.88
2023-05-10T11:42:29.778Z,6.60
2023-05-10T11:45:05.876Z,4.72
2023-05-10T11:47:38.810Z,6.72
2023-05-10T11:50:09.753Z,5.90
2023-05-10T11:52:44.714Z,7.15
2023-05-10T11:55:26.355Z,4.18
2023-05-10T11:58:04.815Z,5.63
2023-05-10T12:00:39.810Z,5.55
2023-05-10T12:03:15.174Z,5.32
2023-05-10T12:05:47.525Z,6.20
2023-05-10T12:08:22.685Z,5.75
2023-05-10T12:11:06.473Z,5.68
2023-05-10T12:13:47.873Z,6.07
2023-05-10T12:16:30.648Z,5.32
2023-05-10T12:19:02.329Z,6.60
2023-05-10T12:21:53.370Z,6.18
2023-05-10T12:27:01.725Z,4.18
2023-05-10T12:29:35.881Z,6.25
2023-05-10T12:32:10.862Z,4.93
2023-05-10T12:34:44.360Z,5.47
2023-05-10T12:37:16.881Z,5.15
2023-05-10T12:39:50.952Z,5.32
2023-05-10T12:42:26.674Z,5.60
2023-05-10T12:45:02.365Z,5.90
2023-05-10T12:47:37.829Z,5.85
2023-05-10T12:50:07.966Z,6.57
2023-05-10T12:52:41.456Z,4.90
2023-05-10T12:55:13.924Z,4.90
2023-05-10T12:57:49.497Z,6.13
2023-05-10T13:00:19.659Z,5.70
2023-05-10T13:02:54.828Z,4.38
2023-05-10T13:05:26.715Z,5.22
2023-05-10T13:08:00.917Z,6.95
2023-05-10T13:10:34.198Z,4.38
2023-05-10T13:13:10.562Z,5.18
2023-05-10T13:15:43.273Z,5.07
2023-05-10T13:18:16.128Z,4.07
2023-05-10T13:23:22.525Z,4.82
2023-05-10T13:25:54.921Z,4.97
2023-05-10T13:28:31.821Z,5.07
2023-05-10T13:31:06.617Z,3.15
2023-05-10T13:33:39.097Z,3.47
2023-05-10T13:36:08.865Z,8.88
2023-05-10T13:38:42.761Z,5.85
2023-05-10T13:41:12.608Z,5.53
2023-05-10T13:43:42.356Z,4.38
2023-05-10T13:46:12.169Z,7.82
2023-05-10T13:48:41.884Z,5.47
2023-05-10T13:51:14.321Z,7.63
2023-05-10T13:56:23.961Z,5.72
2023-05-10T13:58:58.474Z,3.47
2023-05-10T14:01:30.632Z,5.07
2023-05-10T14:04:08.629Z,3.38
2023-05-10T14:06:44.141Z,5.07
2023-05-10T14:09:16.339Z,4.30
2023-05-10T14:11:54.107Z,4.57
2023-05-10T14:14:27.296Z,6.05
2023-05-10T14:17:00.877Z,5.18
2023-05-10T14:19:36.264Z,4.35
2023-05-10T14:22:09.411Z,3.17
2023-05-10T14:24:48.364Z,4.80
2023-05-10T14:27:19.558Z,3.80
2023-05-10T14:29:49.707Z,6.28
2023-05-10T14:32:21.754Z,5.22
2023-05-10T14:34:54.073Z,5.20
2023-05-10T14:37:24.337Z,4.38
2023-05-10T14:40:02.531Z,4.07
2023-05-10T14:42:54.576Z,20.05
2023-05-10T14:45:29.334Z,9.70
2023-05-10T14:48:16.931Z,6.03
2023-05-10T14:50:51.861Z,5.32
2023-05-10T14:53:20.874Z,4.88
2023-05-10T14:55:55.124Z,9.35
2023-05-10T14:58:28.497Z,6.32
2023-05-10T15:01:03.371Z,5.63
2023-05-10T15:03:34.109Z,6.78
2023-05-10T15:06:12.413Z,5.95
2023-05-10T15:08:41.431Z,5.82
2023-05-10T15:11:12.842Z,6.40
2023-05-10T15:13:46.852Z,5.60
2023-05-10T15:16:19.514Z,7.28
2023-05-10T15:18:49.086Z,5.95
2023-05-10T15:21:20.377Z,7.30
2023-05-10T15:23:56.387Z,7.57
2023-05-10T15:26:27.827Z,6.45
2023-05-10T15:28:59.893Z,6.65
2023-05-10T15:31:29.913Z,7.07
2023-05-10T15:34:01.799Z,8.70
2023-05-10T15:36:37.043Z,5.20
2023-05-10T15:39:08.754Z,5.93
2023-05-10T15:41:47.472Z,5.45
2023-05-10T15:44:18.457Z,9.05
2023-05-10T15:46:52.159Z,5.00
2023-05-10T15:49:24.838Z,6.50
2023-05-10T15:51:57.462Z,6.07
2023-05-10T15:54:34.348Z,7.07
2023-05-10T15:57:06.569Z,5.25
2023-05-10T15:59:36.300Z,6.00
2023-05-10T16:02:12.452Z,6.30
2023-05-10T16:04:50.108Z,5.90
2023-05-10T16:07:19.751Z,4.93
2023-05-10T16:09:54.607Z,6.68
2023-05-10T16:12:29.542Z,6.18
2023-05-10T16:15:03.972Z,6.80
2023-05-10T16:17:33.450Z,7.53
2023-05-10T16:20:06.233Z,6.55
2023-05-10T16:22:37.014Z,5.85
2023-05-10T16:25:06.746Z,5.43
2023-05-10T16:27:37.243Z,6.65
2023-05-10T16:30:10.850Z,4.95
2023-05-10T16:32:40.311Z,6.47
2023-05-10T16:35:11.885Z,5.07
2023-05-10T16:37:46.073Z,7.28
2023-05-10T16:40:21.148Z,5.53
2023-05-10T16:42:52.256Z,8.55
2023-05-10T16:45:27.524Z,5.43
2023-05-10T16:47:57.020Z,6.28
2023-05-10T16:50:28.619Z,5.40
2023-05-10T16:53:00.639Z,6.82
2023-05-10T16:55:37.869Z,7.30
2023-05-10T16:58:15.108Z,6.80
2023-05-10T17:00:48.341Z,8.20
2023-05-10T17:03:22.933Z,7.03
2023-05-10T17:05:54.578Z,5.93
2023-05-10T17:08:25.319Z,5.55
2023-05-10T17:10:57.417Z,5.97
2023-05-10T17:13:30.934Z,6.90
2023-05-10T17:16:04.221Z,6.85
2023-05-10T17:18:36.297Z,7.15
2023-05-10T17:23:39.522Z,7.55
2023-05-10T17:26:13.867Z,5.88
2023-05-10T17:28:51.986Z,7.95
2023-05-10T17:31:24.424Z,5.85
2023-05-10T17:36:26.961Z,5.75
2023-05-10T17:38:58.092Z,5.95
2023-05-10T17:41:29.799Z,6.55
2023-05-10T17:44:01.840Z,8.55
2023-05-10T17:46:36.691Z,9.15
2023-05-10T17:49:10.821Z,7.68
2023-05-10T17:51:42.438Z,6.25
2023-05-10T17:54:14.798Z,7.75
2023-05-10T17:56:44.184Z,6.88
2023-05-10T17:59:17.903Z,6.65
2023-05-10T18:01:57.588Z,4.90
2023-05-10T18:04:34.860Z,7.38
2023-05-10T18:07:08.884Z,10.32
2023-05-10T18:12:13.528Z,5.15
2023-05-10T18:14:45.905Z,6.30
2023-05-10T18:17:20.356Z,8.50
2023-05-10T18:19:53.624Z,8.75
2023-05-10T18:22:28.405Z,8.13
2023-05-10T18:25:00.930Z,11.02
2023-05-10T18:27:33.335Z,10.30
2023-05-10T18:30:11.352Z,9.15
2023-05-10T18:32:44.814Z,9.63
2023-05-10T18:35:17.534Z,9.13
2023-05-10T18:37:54.422Z,8.63
2023-05-10T18:40:29.204Z,10.32
2023-05-10T18:43:03.216Z,10.68
2023-05-10T18:45:36.078Z,12.02
2023-05-10T18:50:50.619Z,12.57
2023-05-10T18:53:20.442Z,10.02
2023-05-10T18:56:03.401Z,10.65
2023-05-10T18:58:38.946Z,13.57
2023-05-10T19:01:12.667Z,12.38
2023-05-10T19:03:48.433Z,10.02
2023-05-10T19:06:27.113Z,14.85
2023-05-10T19:08:57.041Z,12.82
2023-05-10T19:11:32.622Z,16.50
2023-05-10T19:14:03.149Z,56.53
2023-05-10T19:16:38.535Z,26.23
2023-05-10T19:19:14.565Z,16.42
2023-05-10T19:21:47.974Z,18.23
2023-05-10T19:24:24.766Z,18.50
2023-05-10T19:27:02.827Z,15.35
2023-05-10T19:29:33.700Z,13.75
2023-05-10T19:32:07.362Z,17.83
2023-05-10T19:39:45.976Z,17.38
2023-05-10T19:42:18.330Z,17.80
2023-05-10T19:44:51.217Z,19.75
2023-05-10T19:47:28.737Z,17.55
2023-05-10T19:50:08.057Z,21.20
2023-05-10T19:52:40.109Z,17.17
2023-05-10T19:55:09.831Z,15.35
2023-05-10T19:57:46.610Z,18.13
2023-05-10T20:00:20.368Z,17.30
2023-05-10T20:02:54.308Z,17.33
2023-05-10T20:05:26.909Z,18.10
2023-05-10T20:08:01.784Z,17.25
2023-05-10T20:10:34.085Z,16.42
2023-05-10T20:13:04.029Z,21.58
2023-05-10T20:15:34.914Z,24.42
2023-05-10T20:18:07.774Z,18.40
2023-05-10T20:20:40.302Z,19.92
2023-05-10T20:23:11.366Z,24.92
2023-05-10T20:25:45.916Z,20.80
2023-05-10T20:28:27.292Z,21.70
2023-05-10T20:30:57.282Z,20.13
2023-05-10T20:33:32.565Z,21.38
2023-05-10T20:36:10.048Z,23.23
2023-05-10T20:38:39.066Z,21.02
2023-05-10T20:41:14.856Z,17.85
2023-05-10T20:43:44.353Z,20.83
2023-05-10T20:46:18.679Z,28.10
2023-05-10T20:48:51.049Z,19.33
2023-05-10T20:51:20.345Z,17.58
2023-05-10T20:53:49.376Z,23.23
2023-05-10T20:56:22.240Z,16.70
2023-05-10T20:58:51.517Z,16.80
2023-05-10T21:01:21.910Z,16.13
2023-05-10T21:03:51.039Z,13.38
2023-05-10T21:06:25.737Z,18.42
2023-05-10T21:09:02.339Z,14.70
2023-05-10T21:11:38.935Z,18.92
2023-05-10T21:14:11.144Z,16.38
2023-05-10T21:16:45.499Z,17.92
2023-05-10T21:19:14.706Z,15.13
2023-05-10T21:21:44.415Z,14.10
2023-05-10T21:24:13.568Z,15.43
2023-05-10T21:26:42.953Z,18.55
2023-05-10T21:29:16.649Z,15.63
2023-05-10T21:31:45.656Z,18.27
2023-05-10T21:34:16.352Z,14.98
2023-05-10T21:36:55.210Z,14.18
2023-05-10T21:39:29.669Z,14.95
2023-05-10T21:42:00.945Z,14.20
2023-05-10T21:44:32.550Z,14.23
2023-05-10T21:47:07.602Z,16.40
2023-05-10T21:49:39.239Z,16.63
2023-05-10T21:52:09.103Z,14.48
2023-05-10T21:54:42.569Z,12.88
2023-05-10T21:57:13.839Z,11.27
2023-05-10T21:59:47.543Z,14.20
2023-05-10T22:02:21.169Z,13.93
2023-05-10T22:04:51.028Z,13.70
2023-05-10T22:07:24.463Z,12.38
2023-05-10T22:09:56.801Z,13.23
2023-05-10T22:12:31.342Z,15.23
2023-05-10T22:17:40.977Z,15.13
2023-05-10T22:20:15.796Z,15.15
2023-05-10T22:22:49.016Z,17.58
2023-05-10T22:25:24.273Z,13.75
2023-05-10T22:27:55.983Z,15.75
2023-05-10T22:30:24.811Z,15.07
2023-05-10T22:32:54.034Z,15.35
2023-05-10T22:35:30.560Z,13.65
2023-05-10T22:37:59.588Z,15.85
2023-05-10T22:40:35.559Z,13.65
2023-05-10T22:43:04.589Z,15.30
2023-05-10T22:45:37.943Z,15.98
2023-05-10T22:48:13.231Z,13.25
2023-05-10T22:50:45.493Z,14.18
2023-05-10T22:53:19.017Z,14.10
2023-05-10T22:55:50.330Z,12.73
2023-05-10T22:58:22.133Z,13.80
2023-05-10T23:00:53.967Z,13.00
2023-05-10T23:03:27.437Z,12.05
2023-05-10T23:05:56.123Z,12.88
2023-05-10T23:08:27.268Z,14.15
2023-05-10T23:10:56.038Z,11.82
2023-05-10T23:13:29.658Z,14.32
2023-05-10T23:16:11.247Z,12.77
2023-05-10T23:18:40.223Z,12.50
2023-05-10T23:21:12.826Z,11.10
2023-05-10T23:23:48.523Z,12.13
2023-05-10T23:26:24.506Z,14.05
2023-05-10T23:28:53.798Z,12.27
2023-05-10T23:31:25.613Z,11.13
2023-05-10T23:33:57.115Z,9.23
2023-05-10T23:36:25.656Z,9.27
2023-05-10T23:38:54.632Z,10.73
2023-05-10T23:41:30.663Z,11.95
2023-05-10T23:44:00.325Z,10.13
2023-05-10T23:46:34.645Z,11.68
2023-05-10T23:49:09.919Z,11.90
2023-05-10T23:51:42.009Z,10.68
2023-05-10T23:54:17.910Z,9.13
2023-05-10T23:56:52.003Z,9.73
2023-05-10T23:59:28.338Z,12.10
